sensor_id;sensor_type;location;lat;lon;timestamp;pressure;altitude;pressure_sealevel;temperature;humidity
26178;BME280;13924;47.670;10.310;2023-04-03T00:00:39;93710;;;4.0;100.0
26178;BME280;13924;47.670;10.310;2023-04-03T00:15:40;93700;;;4.7;100.0
26178;BME280;13924;47.670;10.310;2023-04-03T00:30:40;93680;;;4.8;100.0
26178;BME280;13924;47.670;10.310;2023-04-03T00:45:43;93680;;;4.8;100.0
26178;BME280;13924;47.670;10.310;2023-04-03T01:00:46;93660;;;4.7;100.0
26178;BME280;13924;47.670;10.310;2023-04-03T01:01:28;93660;;;4.7;100.0
26178;BME280;13924;47.670;10.310;2023-04-03T01:15:42;93670;;;4.4;100.0
26178;BME280;13924;47.670;10.310;2023-04-03T01:30:48;93670;;;3.9;100.0
26178;BME280;13924;47.670;10.310;2023-04-03T01:45:43;93690;;;3.4;100.0
26178;BME280;13924;47.670;10.310;2023-04-03T02:00:45;93670;;;3.7;100.0
26178;BME280;13924;47.670;10.310;2023-04-03T02:15:45;93650;;;3.7;100.0
26178;BME280;13924;47.670;10.310;2023-04-03T02:30:46;93660;;;3.8;100.0
26178;BME280;13924;47.670;10.310;2023-04-03T02:45:45;93660;;;3.8;100.0
26178;BME280;13924;47.670;10.310;2023-04-03T03:00:47;93650;;;3.4;100.0
26178;BME280;13924;47.670;10.310;2023-04-03T03:15:48;93670;;;3.2;100.0
26178;BME280;13924;47.670;10.310;2023-04-03T03:30:48;93660;;;3.2;100.0
26178;BME280;13924;47.670;10.310;2023-04-03T03:45:51;93690;;;2.9;100.0
26178;BME280;13924;47.670;10.310;2023-04-03T04:00:49;93750;;;3.2;100.0
26178;BME280;13924;47.670;10.310;2023-04-03T04:15:50;93730;;;2.9;100.0
26178;BME280;13924;47.670;10.310;2023-04-03T04:30:51;93740;;;2.7;100.0
26178;BME280;13924;47.670;10.310;2023-04-03T04:46:01;93740;;;2.5;100.0
26178;BME280;13924;47.670;10.310;2023-04-03T05:00:58;93800;;;2.9;100.0
26178;BME280;13924;47.670;10.310;2023-04-03T05:13:39;93740;;;2.6;100.0
26178;BME280;13924;47.670;10.310;2023-04-03T05:28:40;93770;;;2.7;100.0
26178;BME280;13924;47.670;10.310;2023-04-03T05:43:41;93760;;;2.7;100.0
26178;BME280;13924;47.670;10.310;2023-04-03T05:58:40;93780;;;2.5;100.0
26178;BME280;13924;47.670;10.310;2023-04-03T06:13:41;93760;;;3.0;100.0
26178;BME280;13924;47.670;10.310;2023-04-03T06:28:42;93770;;;2.8;100.0
26178;BME280;13924;47.670;10.310;2023-04-03T06:43:43;93800;;;2.7;100.0
26178;BME280;13924;47.670;10.310;2023-04-03T06:58:44;93840;;;2.7;100.0
26178;BME280;13924;47.670;10.310;2023-04-03T07:13:44;93830;;;2.9;100.0
26178;BME280;13924;47.670;10.310;2023-04-03T07:28:45;93840;;;2.5;100.0
26178;BME280;13924;47.670;10.310;2023-04-03T07:43:46;93830;;;2.5;100.0
26178;BME280;13924;47.670;10.310;2023-04-03T07:58:46;93820;;;2.4;100.0
26178;BME280;13924;47.670;10.310;2023-04-03T08:13:47;93840;;;2.6;100.0
26178;BME280;13924;47.670;10.310;2023-04-03T08:28:48;93810;;;2.5;100.0
26178;BME280;13924;47.670;10.310;2023-04-03T08:44:00;93820;;;2.6;100.0
26178;BME280;13924;47.670;10.310;2023-04-03T08:58:52;93820;;;2.7;100.0
26178;BME280;13924;47.670;10.310;2023-04-03T09:13:54;93860;;;2.5;100.0
26178;BME280;13924;47.670;10.310;2023-04-03T09:28:51;93810;;;2.9;100.0
26178;BME280;13924;47.670;10.310;2023-04-03T09:43:53;93770;;;3.1;100.0
26178;BME280;13924;47.670;10.310;2023-04-03T09:59:07;93750;;;3.2;100.0
26178;BME280;13924;47.670;10.310;2023-04-03T10:13:53;93730;;;3.6;100.0
26178;BME280;13924;47.670;10.310;2023-04-03T10:28:58;93710;;;4.1;100.0
26178;BME280;13924;47.670;10.310;2023-04-03T10:44:02;93700;;;4.6;100.0
26178;BME280;13924;47.670;10.310;2023-04-03T10:58:57;93690;;;4.6;100.0
26178;BME280;13924;47.670;10.310;2023-04-03T11:14:00;93660;;;4.7;100.0
26178;BME280;13924;47.670;10.310;2023-04-03T11:28:59;93670;;;4.7;100.0
26178;BME280;13924;47.670;10.310;2023-04-03T11:43:59;93670;;;5.1;100.0
26178;BME280;13924;47.670;10.310;2023-04-03T11:59:21;93640;;;4.7;100.0
26178;BME280;13924;47.670;10.310;2023-04-03T12:14:15;93650;;;4.9;100.0
26178;BME280;13924;47.670;10.310;2023-04-03T12:28:58;93640;;;4.3;100.0
26178;BME280;13924;47.670;10.310;2023-04-03T12:44:43;93640;;;4.5;100.0
26178;BME280;13924;47.670;10.310;2023-04-03T12:59:14;93640;;;4.1;100.0
26178;BME280;13924;47.670;10.310;2023-04-03T13:14:03;93640;;;4.1;100.0
26178;BME280;13924;47.670;10.310;2023-04-03T13:29:05;93640;;;4.2;100.0
26178;BME280;13924;47.670;10.310;2023-04-03T13:44:28;93630;;;4.1;100.0
26178;BME280;13924;47.670;10.310;2023-04-03T13:59:19;93620;;;4.2;100.0
26178;BME280;13924;47.670;10.310;2023-04-03T14:14:09;93600;;;4.2;100.0
26178;BME280;13924;47.670;10.310;2023-04-03T14:29:05;93600;;;4.2;100.0
26178;BME280;13924;47.670;10.310;2023-04-03T14:44:04;93640;;;3.2;100.0
26178;BME280;13924;47.670;10.310;2023-04-03T14:59:09;93640;;;3.2;100.0
26178;BME280;13924;47.670;10.310;2023-04-03T15:14:05;93630;;;3.7;100.0
26178;BME280;13924;47.670;10.310;2023-04-03T15:29:06;93640;;;3.5;100.0
26178;BME280;13924;47.670;10.310;2023-04-03T15:44:07;93640;;;3.2;100.0
26178;BME280;13924;47.670;10.310;2023-04-03T15:59:07;93650;;;3.2;100.0
26178;BME280;13924;47.670;10.310;2023-04-03T16:14:08;93650;;;3.3;100.0
26178;BME280;13924;47.670;10.310;2023-04-03T16:29:08;93630;;;3.4;100.0
26178;BME280;13924;47.670;10.310;2023-04-03T16:44:08;93620;;;3.5;100.0
26178;BME280;13924;47.670;10.310;2023-04-03T16:59:09;93620;;;3.3;100.0
26178;BME280;13924;47.670;10.310;2023-04-03T17:14:10;93620;;;3.3;100.0
26178;BME280;13924;47.670;10.310;2023-04-03T17:29:11;93640;;;3.3;100.0
26178;BME280;13924;47.670;10.310;2023-04-03T17:44:12;93630;;;3.2;100.0
26178;BME280;13924;47.670;10.310;2023-04-03T17:59:13;93650;;;3.3;100.0
26178;BME280;13924;47.670;10.310;2023-04-03T18:14:16;93660;;;2.6;100.0
26178;BME280;13924;47.670;10.310;2023-04-03T18:29:14;93660;;;2.5;100.0
26178;BME280;13924;47.670;10.310;2023-04-03T18:44:18;93670;;;2.3;100.0
26178;BME280;13924;47.670;10.310;2023-04-03T18:59:15;93700;;;2.2;100.0
26178;BME280;13924;47.670;10.310;2023-04-03T19:14:15;93690;;;2.2;100.0
26178;BME280;13924;47.670;10.310;2023-04-03T19:29:17;93700;;;2.7;100.0
26178;BME280;13924;47.670;10.310;2023-04-03T19:44:17;93690;;;2.4;100.0
26178;BME280;13924;47.670;10.310;2023-04-03T19:59:18;93690;;;2.1;100.0
26178;BME280;13924;47.670;10.310;2023-04-03T20:14:19;93690;;;2.0;100.0
26178;BME280;13924;47.670;10.310;2023-04-03T20:29:20;93690;;;2.2;100.0
26178;BME280;13924;47.670;10.310;2023-04-03T20:44:20;93670;;;2.2;100.0
26178;BME280;13924;47.670;10.310;2023-04-03T20:59:20;93660;;;2.1;100.0
26178;BME280;13924;47.670;10.310;2023-04-03T21:29:23;93630;;;1.9;100.0
26178;BME280;13924;47.670;10.310;2023-04-03T21:44:23;93630;;;1.3;100.0
26178;BME280;13924;47.670;10.310;2023-04-03T21:59:24;93630;;;0.8;100.0
26178;BME280;13924;47.670;10.310;2023-04-03T22:00:47;93630;;;0.7;100.0
26178;BME280;13924;47.670;10.310;2023-04-03T22:15:36;93620;;;0.4;100.0
26178;BME280;13924;47.670;10.310;2023-04-03T22:30:37;93630;;;0.1;100.0
26178;BME280;13924;47.670;10.310;2023-04-03T22:45:46;93640;;;-0.1;100.0
26178;BME280;13924;47.670;10.310;2023-04-03T23:00:44;93630;;;-0.1;100.0
26178;BME280;13924;47.670;10.310;2023-04-03T23:15:51;93630;;;-0.2;100.0
26178;BME280;13924;47.670;10.310;2023-04-03T23:30:46;93640;;;-0.4;100.0
26178;BME280;13924;47.670;10.310;2023-04-03T23:45:46;93630;;;-0.6;100.0
